KAPC/APC METAR and TAF weather

Enter ICAO airport designator
Station Type Date Time Source
KAPC METAR 2018/10/22 16:54 UTC NOAA

KAPC 221654Z 35003KT 3SM BR OVC004 11/10 A2999 RMK AO2 SLP146 T01060100


Station Type Date Time Source
KAPC Decoded METAR 2018/10/22 16:54 UTC NOAA

NAPA COUNTY AIRPORT, CA, United States (KAPC) 38-12N 122-17W 13M
Oct 22, 2018 - 12:54 PM EDT / 2018.10.22 1654 UTC
Wind: from the N (350 degrees) at 3 MPH (3 KT):0
Visibility: 3 mile(s):0
Sky conditions: overcast
Weather: mist
Temperature: 51.1 F (10.6 C)
Dew Point: 50.0 F (10.0 C)
Relative Humidity: 96%
Pressure (altimeter): 29.99 in. Hg (1015 hPa)
ob: KAPC 221654Z 35003KT 3SM BR OVC004 11/10 A2999 RMK AO2 SLP146 T01060100
cycle: 17

Station Type Date Time Source
KAPC TAF 2016/02/08 18:39 UTC NOAA

TAF KAPC 081738Z 0818/0918 08008KT P6SM SKC
FM081900 09012KT P6SM SKC
FM090000 07007KT P6SM SKC
FM090600 04004KT P6SM SKC


Example: see airport list